Time;durP1;ratioP1;P1;durP2;ratioP2;P2;SDS_P1;SDS_P2;PMS_P1;PMS_P2;Temp;Humidity;BMP_temperature;BMP_pressure;BME280_temperature;BME280_humidity;BME280_pressure;Samples;Min_cycle;Max_cycle;Signal;HPM_P1;HPM_P2
2023/01/26 00:01:44;;;;;;;12.02;7.00;;;;;;;1.63;100.00;101394.91;4974094;28;20068;-75
2023/01/26 00:04:10;;;;;;;10.50;6.82;;;;;;;1.57;100.00;101392.72;4991396;28;20477;-77
2023/01/26 00:06:36;;;;;;;11.05;6.60;;;;;;;1.66;100.00;101407.88;4990832;28;20190;-75
2023/01/26 00:09:01;;;;;;;10.95;6.80;;;;;;;1.89;100.00;101427.75;4990809;28;20049;-79
2023/01/26 00:11:29;;;;;;;11.18;6.18;;;;;;;1.88;100.00;101415.75;4990784;28;20018;-78
2023/01/26 00:13:56;;;;;;;13.13;6.85;;;;;;;1.27;100.00;101305.28;4990985;28;20041;-80
2023/01/26 00:16:23;;;;;;;11.25;5.88;;;;;;;1.36;100.00;101307.75;4973508;28;21432;-77
2023/01/26 00:18:48;;;;;;;11.65;6.78;;;;;;;1.94;100.00;101418.84;4990996;28;20068;-73
2023/01/26 00:21:17;;;;;;;12.25;6.68;;;;;;;1.78;100.00;101391.16;4990944;28;20465;-74
2023/01/26 00:23:42;;;;;;;11.57;6.43;;;;;;;1.84;100.00;101388.25;4990534;28;20145;-77
2023/01/26 00:26:14;;;;;;;11.73;6.45;;;;;;;2.00;100.00;101409.19;4990890;28;20403;-76
2023/01/26 00:28:39;;;;;;;13.63;6.90;;;;;;;1.48;100.00;101325.75;4990830;28;20030;-76
2023/01/26 00:31:09;;;;;;;10.02;6.20;;;;;;;1.97;100.00;101402.94;4973722;28;20477;-74
2023/01/26 00:33:34;;;;;;;10.63;6.10;;;;;;;2.00;100.00;101409.19;4991143;28;20542;-78
2023/01/26 00:36:00;;;;;;;10.95;5.97;;;;;;;1.52;100.00;101346.53;4990805;28;20030;-77
2023/01/26 00:38:25;;;;;;;10.27;5.78;;;;;;;1.85;100.00;101407.88;4991318;28;20042;-78
2023/01/26 00:40:51;;;;;;;11.13;5.82;;;;;;;1.56;100.00;101375.69;4990739;28;20034;-78
2023/01/26 00:43:16;;;;;;;13.85;5.97;;;;;;;0.08;100.00;101122.94;4991080;28;20409;-76
2023/01/26 00:45:43;;;;;;;11.18;6.07;;;;;;;1.34;100.00;101350.88;4973689;28;20046;-76
2023/01/26 00:48:08;;;;;;;13.77;7.03;;;;;;;1.50;100.00;101368.38;4990942;28;20444;-77
2023/01/26 00:50:33;;;;;;;12.82;6.38;;;;;;;1.59;100.00;101368.28;4990216;28;20038;-77
2023/01/26 00:52:59;;;;;;;13.63;6.78;;;;;;;1.61;100.00;101364.25;4994966;28;20026;-83
2023/01/26 00:55:31;;;;;;;13.98;7.00;;;;;;;1.60;100.00;101353.16;4993471;28;20030;-79
2023/01/26 00:57:57;;;;;;;14.77;6.80;;;;;;;1.33;100.00;101300.75;4994291;28;20023;-80
2023/01/26 01:00:23;;;;;;;13.77;6.85;;;;;;;2.00;100.00;101390.47;4976357;28;20034;-83
2023/01/26 01:02:48;;;;;;;14.00;6.38;;;;;;;1.71;100.00;101318.47;4994414;28;20084;-82
2023/01/26 01:05:14;;;;;;;12.85;6.95;;;;;;;1.90;100.00;101353.13;4994000;28;20404;-83
2023/01/26 01:07:39;;;;;;;12.48;6.75;;;;;;;2.09;100.00;101374.34;4994537;28;20057;-81
2023/01/26 01:10:05;;;;;;;12.95;6.63;;;;;;;2.13;100.00;101372.03;4994071;28;20109;-82
2023/01/26 01:12:31;;;;;;;10.48;6.30;;;;;;;1.89;100.00;101331.84;4993736;28;20488;-83
2023/01/26 01:14:56;;;;;;;12.13;6.80;;;;;;;2.06;100.00;101353.69;4976742;28;20081;-81
2023/01/26 01:17:22;;;;;;;10.70;6.85;;;;;;;1.56;100.00;101256.06;4994290;28;20473;-81
2023/01/26 01:19:47;;;;;;;11.50;6.25;;;;;;;2.09;100.00;101364.16;4976550;28;20039;-79
2023/01/26 01:22:13;;;;;;;11.95;6.25;;;;;;;1.52;100.00;101260.00;4994575;28;20496;-81
2023/01/26 01:24:39;;;;;;;15.63;6.53;;;;;;;1.50;100.00;101260.63;4976744;28;20396;-79
2023/01/26 01:27:05;;;;;;;11.80;6.00;;;;;;;1.59;100.00;101267.38;4976472;28;20488;-82
2023/01/26 01:29:30;;;;;;;11.63;6.55;;;;;;;1.69;100.00;101312.31;4994585;28;20112;-83
2023/01/26 01:31:56;;;;;;;11.77;6.63;;;;;;;1.85;100.00;101323.84;4976893;28;20027;-82
2023/01/26 01:34:22;;;;;;;11.40;6.93;;;;;;;1.92;100.00;101331.25;4994497;28;20477;-78
2023/01/26 01:36:47;;;;;;;12.13;5.82;;;;;;;1.81;100.00;101324.31;4933190;29;20046;-87
2023/01/26 01:39:13;;;;;;;15.25;6.50;;;;;;;1.38;100.00;101257.91;4933260;29;20051;-85
2023/01/26 01:41:38;;;;;;;13.70;6.43;;;;;;;1.81;100.00;101337.97;4933589;29;20043;-81
2023/01/26 01:44:22;;;;;;;11.95;6.45;;;;;;;1.52;100.00;101295.63;4933153;29;20034;-80
2023/01/26 01:47:00;;;;;;;12.25;6.50;;;;;;;1.71;100.00;101336.28;4932596;29;20043;-81
2023/01/26 01:49:33;;;;;;;10.63;5.93;;;;;;;1.70;100.00;101336.16;4933201;29;20137;-80
2023/01/26 01:52:14;;;;;;;10.52;5.88;;;;;;;0.93;100.00;101211.69;4933545;29;20577;-80
2023/01/26 01:54:44;;;;;;;12.75;6.13;;;;;;;1.65;100.00;101338.28;4933818;29;20039;-81
2023/01/26 01:57:16;;;;;;;10.93;5.80;;;;;;;1.49;100.00;101309.72;4933263;29;20040;-80
2023/01/26 01:59:57;;;;;;;15.57;6.70;;;;;;;1.62;100.00;101343.13;4933611;29;20495;-79
2023/01/26 02:02:22;;;;;;;11.85;6.05;;;;;;;1.43;100.00;101317.72;4932804;29;20050;-79
2023/01/26 02:04:48;;;;;;;12.82;6.00;;;;;;;1.48;100.00;101311.38;4933295;29;20040;-81
2023/01/26 02:07:14;;;;;;;12.73;6.18;;;;;;;1.60;100.00;101330.25;4949855;28;20050;-80
2023/01/26 02:12:30;;;;;;;12.73;6.55;;;;;;;1.18;100.00;101272.31;4993776;28;20547;-79
2023/01/26 02:14:56;;;;;;;11.20;5.78;;;;;;;1.23;100.00;101293.94;4975893;28;20022;-82
2023/01/26 02:17:22;;;;;;;12.52;6.13;;;;;;;0.87;100.00;101235.69;4993509;28;20034;-84
2023/01/26 02:20:00;;;;;;;13.88;6.40;;;;;;;1.15;100.00;101281.31;4993535;28;20496;-78
2023/01/26 02:22:47;;;;;;;11.30;6.43;;;;;;;1.48;100.00;101333.38;4993284;28;20121;-79
2023/01/26 02:25:26;;;;;;;12.25;6.75;;;;;;;1.29;100.00;101293.63;4993371;28;20031;-78
2023/01/26 02:27:52;;;;;;;13.35;6.38;;;;;;;1.29;100.00;101304.66;4993453;28;20113;-80
2023/01/26 02:30:17;;;;;;;11.27;6.00;;;;;;;1.47;100.00;101314.69;4993347;28;20050;-82
2023/01/26 02:32:43;;;;;;;12.63;6.53;;;;;;;0.98;100.00;101234.97;4992789;28;20492;-78
2023/01/26 02:35:08;;;;;;;16.13;7.00;;;;;;;1.43;100.00;101292.25;4932949;29;20043;-80
2023/01/26 02:37:34;;;;;;;12.65;6.95;;;;;;;1.06;100.00;101223.84;4936291;29;20055;-79
2023/01/26 02:40:06;;;;;;;12.13;6.35;;;;;;;1.48;100.00;101288.47;4932788;29;20051;-80
2023/01/26 02:42:38;;;;;;;13.02;6.15;;;;;;;1.57;100.00;101290.91;4932846;29;20035;-80
2023/01/26 02:45:05;;;;;;;15.57;6.95;;;;;;;1.20;100.00;101219.06;4932581;29;20039;-79
2023/01/26 02:47:30;;;;;;;11.73;6.43;;;;;;;0.87;100.00;101152.66;4932547;29;20078;-79
2023/01/26 02:49:57;;;;;;;11.23;6.18;;;;;;;1.61;100.00;101264.97;4932812;29;20530;-83
2023/01/26 02:52:28;;;;;;;13.07;6.25;;;;;;;1.82;100.00;101290.47;4932624;29;20038;-80
2023/01/26 02:57:38;;;;;;;15.63;6.15;;;;;;;1.71;100.00;101262.44;4932257;29;20628;-80
2023/01/26 03:00:10;;;;;;;13.38;6.00;;;;;;;1.69;100.00;101265.63;4932582;29;20126;-79
2023/01/26 03:02:35;;;;;;;10.75;5.50;;;;;;;1.58;100.00;101254.53;4913483;29;20047;-80
2023/01/26 03:05:03;;;;;;;9.75;5.70;;;;;;;1.44;100.00;101230.44;4914565;29;20051;-78
2023/01/26 03:07:29;;;;;;;10.15;5.75;;;;;;;1.05;100.00;101175.41;4951681;29;20178;-78
2023/01/26 03:09:54;;;;;;;11.43;5.80;;;;;;;1.13;100.00;101177.84;4951008;29;20110;-80
2023/01/26 03:12:20;;;;;;;10.70;5.78;;;;;;;1.21;100.00;101180.13;4950826;28;20105;-78
2023/01/26 03:14:45;;;;;;;12.38;5.65;;;;;;;1.34;100.00;101210.94;4950781;29;20054;-80
2023/01/26 03:17:10;;;;;;;11.02;5.05;;;;;;;1.49;100.00;101248.66;4951351;29;20047;-76
2023/01/26 03:27:48;;;;;;;10.85;6.15;;;;;;;1.56;100.00;101238.25;4951019;29;20231;-80
2023/01/26 03:30:17;;;;;;;11.32;5.53;;;;;;;1.53;100.00;101250.69;4951020;29;20538;-77
2023/01/26 03:32:42;;;;;;;11.67;5.53;;;;;;;1.60;100.00;101245.38;4956462;28;20070;-76
2023/01/26 03:35:13;;;;;;;10.73;5.65;;;;;;;1.53;100.00;101240.50;4991553;28;20586;-79
2023/01/26 03:37:42;;;;;;;13.20;6.50;;;;;;;1.48;100.00;101247.75;4991327;28;20042;-75
2023/01/26 03:56:37;;;;;;;12.57;5.63;;;;;;;1.19;100.00;101152.03;4991956;28;20045;-82
2023/01/26 03:59:08;;;;;;;11.13;5.40;;;;;;;1.40;100.00;101198.75;4974280;28;20030;-81
2023/01/26 04:01:36;;;;;;;12.07;6.03;;;;;;;1.30;100.00;101193.66;4974441;28;20038;-83
2023/01/26 04:09:31;;;;;;;11.57;6.15;;;;;;;0.61;100.00;101034.44;4991362;28;20028;-78
2023/01/26 04:11:57;;;;;;;14.45;6.30;;;;;;;1.63;100.00;101199.81;4991875;28;20027;-78
2023/01/26 04:22:42;;;;;;;12.75;6.72;;;;;;;1.54;100.00;101178.69;4991604;28;20045;-80
2023/01/26 04:25:09;;;;;;;17.55;7.25;;;;;;;1.44;100.00;101160.06;4989452;28;20034;-79
2023/01/26 04:27:35;;;;;;;9.93;6.25;;;;;;;1.63;100.00;101187.09;4991674;28;20066;-79
2023/01/26 04:30:02;;;;;;;10.43;6.03;;;;;;;1.65;100.00;101179.59;4991928;28;20117;-79
2023/01/26 04:32:28;;;;;;;11.82;5.53;;;;;;;1.27;100.00;101106.88;4991601;28;20058;-80
2023/01/26 04:34:54;;;;;;;9.73;5.30;;;;;;;1.72;100.00;101182.78;4991609;28;20031;-80
2023/01/26 04:37:19;;;;;;;11.60;5.93;;;;;;;1.81;100.00;101177.56;4991448;28;20046;-79
2023/01/26 04:39:45;;;;;;;12.45;6.40;;;;;;;1.53;100.00;101119.25;4991327;28;20564;-79
2023/01/26 04:42:10;;;;;;;15.20;6.47;;;;;;;1.28;100.00;101089.22;4991364;28;20128;-79
2023/01/26 04:44:36;;;;;;;26.85;9.23;;;;;;;1.80;100.00;101165.59;4991664;28;20109;-79
2023/01/26 04:47:04;;;;;;;25.27;10.38;;;;;;;1.83;100.00;101157.31;4991574;28;20041;-79
2023/01/26 04:49:30;;;;;;;18.73;6.78;;;;;;;1.77;100.00;101170.44;4991505;28;20034;-79
2023/01/26 04:51:55;;;;;;;17.00;7.15;;;;;;;1.95;100.00;101194.00;4991328;28;20077;-80
2023/01/26 04:54:21;;;;;;;13.70;6.93;;;;;;;1.88;100.00;101161.13;4991098;28;20038;-80
2023/01/26 04:56:46;;;;;;;20.15;7.13;;;;;;;2.00;100.00;101169.78;4991385;28;20038;-79
2023/01/26 04:59:13;;;;;;;13.63;6.05;;;;;;;1.94;100.00;101138.72;4991387;28;20481;-79
2023/01/26 05:01:39;;;;;;;11.43;5.45;;;;;;;1.99;100.00;101165.47;4991272;28;20038;-78
2023/01/26 05:04:05;;;;;;;10.48;6.22;;;;;;;1.91;100.00;101172.47;4991228;28;20394;-79
2023/01/26 05:06:31;;;;;;;11.38;6.22;;;;;;;1.80;100.00;101172.34;4989933;28;20116;-78
2023/01/26 05:08:57;;;;;;;9.50;5.43;;;;;;;1.37;100.00;101106.91;4991137;28;20572;-79
2023/01/26 05:11:22;;;;;;;11.15;5.85;;;;;;;1.24;100.00;101096.47;4990187;28;20121;-78
2023/01/26 05:13:48;;;;;;;10.13;5.45;;;;;;;1.48;100.00;101138.31;4991375;28;20049;-84
2023/01/26 05:16:14;;;;;;;12.77;5.47;;;;;;;1.28;100.00;101123.94;4990718;28;20404;-81
2023/01/26 05:18:40;;;;;;;11.90;5.60;;;;;;;1.37;100.00;101141.63;4991330;28;20034;-80
2023/01/26 05:21:07;;;;;;;12.82;6.00;;;;;;;0.78;100.00;101038.41;4990440;28;20042;-80
2023/01/26 05:23:32;;;;;;;12.38;5.53;;;;;;;1.41;100.00;101131.84;4990327;28;20037;-80
2023/01/26 05:25:58;;;;;;;11.57;6.70;;;;;;;1.38;100.00;101123.06;4990446;28;20034;-79
2023/01/26 05:28:23;;;;;;;13.07;6.22;;;;;;;0.43;100.00;100967.69;4991159;28;20035;-79
2023/01/26 05:30:48;;;;;;;17.60;6.22;;;;;;;1.49;100.00;101154.50;4990890;28;20050;-79
2023/01/26 05:33:15;;;;;;;14.27;6.38;;;;;;;0.94;100.00;101072.75;4990753;28;20104;-79
2023/01/26 05:35:40;;;;;;;14.60;6.77;;;;;;;1.11;100.00;101090.34;4991120;28;20031;-80
2023/01/26 05:38:06;;;;;;;13.40;6.90;;;;;;;0.89;100.00;101058.78;4994384;28;20057;-79
2023/01/26 05:40:31;;;;;;;12.73;6.60;;;;;;;1.40;100.00;101139.34;4994712;28;20037;-79
2023/01/26 05:42:57;;;;;;;12.80;7.17;;;;;;;1.42;100.00;101137.81;4994558;28;20061;-79
2023/01/26 05:45:22;;;;;;;12.18;6.38;;;;;;;1.40;100.00;101119.88;4994413;28;20587;-79
2023/01/26 05:47:48;;;;;;;13.52;6.63;;;;;;;1.52;100.00;101131.84;4994404;28;20034;-79
2023/01/26 05:50:14;;;;;;;17.00;9.07;;;;;;;1.58;100.00;101148.53;4993886;28;20469;-83
2023/01/26 05:52:41;;;;;;;29.37;15.17;;;;;;;1.58;100.00;101134.91;4994235;28;20034;-83
2023/01/26 05:55:07;;;;;;;12.83;7.47;;;;;;;1.57;100.00;101136.56;4977051;28;20492;-84
2023/01/26 05:57:32;;;;;;;42.73;10.37;;;;;;;0.92;100.00;101019.25;4973787;28;20040;-83
2023/01/26 05:59:57;;;;;;;21.67;8.50;;;;;;;1.10;100.00;101052.06;4992007;28;20018;-83
2023/01/26 06:02:26;;;;;;;19.30;8.13;;;;;;;1.00;100.00;101029.16;4973228;28;20511;-81
2023/01/26 06:04:51;;;;;;;23.13;9.10;;;;;;;1.19;100.00;101045.19;4974567;28;20089;-80
2023/01/26 06:07:17;;;;;;;25.88;8.93;;;;;;;1.75;100.00;101142.28;4977061;28;20038;-77
2023/01/26 06:09:42;;;;;;;21.75;8.82;;;;;;;1.68;100.00;101114.53;4993457;28;20030;-78
2023/01/26 06:12:19;;;;;;;17.25;8.65;;;;;;;1.77;100.00;101130.59;4993865;28;20465;-75
2023/01/26 06:14:45;;;;;;;17.23;7.53;;;;;;;1.90;100.00;101147.75;4993852;28;20499;-75
2023/01/26 06:17:11;;;;;;;16.05;7.25;;;;;;;1.97;100.00;101148.28;4993694;28;20038;-76
2023/01/26 06:19:37;;;;;;;25.10;9.18;;;;;;;1.98;100.00;101138.22;4991477;28;20038;-72
2023/01/26 06:22:03;;;;;;;25.92;9.35;;;;;;;1.91;100.00;101115.56;4982051;28;20042;-73
2023/01/26 06:24:29;;;;;;;37.25;12.27;;;;;;;2.09;100.00;101149.28;4977402;28;20065;-73
2023/01/26 06:26:54;;;;;;;19.63;7.57;;;;;;;1.92;100.00;101118.22;4976105;28;20049;-73
2023/01/26 06:29:20;;;;;;;13.32;6.93;;;;;;;2.20;100.00;101143.41;4966645;28;20046;-74
2023/01/26 06:31:46;;;;;;;14.25;6.28;;;;;;;2.17;100.00;101142.25;4973446;28;20027;-70
2023/01/26 06:34:11;;;;;;;11.70;6.10;;;;;;;1.65;100.00;101043.03;4972179;28;20078;-73
2023/01/26 06:36:37;;;;;;;11.60;6.25;;;;;;;1.66;100.00;101044.81;4971917;28;20035;-73
2023/01/26 06:39:02;;;;;;;13.93;6.50;;;;;;;2.19;100.00;101115.25;4973276;28;20031;-76
2023/01/26 06:41:28;;;;;;;11.90;6.00;;;;;;;2.17;100.00;101097.31;4972967;28;20093;-75
2023/01/26 06:43:53;;;;;;;14.82;5.63;;;;;;;2.06;100.00;101091.34;4973212;28;20111;-76
2023/01/26 06:46:19;;;;;;;13.77;6.15;;;;;;;1.79;100.00;101051.78;4967604;28;20038;-77
2023/01/26 06:48:45;;;;;;;12.73;5.82;;;;;;;2.17;100.00;101122.78;4970945;28;20027;-75
2023/01/26 06:51:22;;;;;;;10.73;5.47;;;;;;;2.20;100.00;101127.25;4966861;28;20478;-76
2023/01/26 06:53:52;;;;;;;15.07;6.88;;;;;;;2.12;100.00;101113.88;4961740;28;20036;-76
2023/01/26 06:56:17;;;;;;;;;;;;;;;2.11;100.00;101122.28;4980104;28;20027;-75
2023/01/26 06:58:43;;;;;;;10.63;5.50;;;;;;;2.06;100.00;101118.47;4964064;28;19945;-76
2023/01/26 07:01:30;;;;;;;15.80;6.63;;;;;;;2.24;100.00;101124.16;4975097;28;20041;-78
2023/01/26 07:03:55;;;;;;;17.88;7.53;;;;;;;2.13;100.00;101087.66;4952815;28;20071;-77
2023/01/26 07:06:21;;;;;;;19.77;7.95;;;;;;;2.06;100.00;101065.88;4953534;28;20171;-79
2023/01/26 07:08:46;;;;;;;23.05;7.90;;;;;;;2.46;100.00;101119.13;4954887;28;20034;-78
2023/01/26 07:11:12;;;;;;;24.27;9.73;;;;;;;2.40;100.00;101108.44;4952846;28;20030;-78
2023/01/26 07:13:38;;;;;;;26.27;18.38;;;;;;;2.50;100.00;101120.28;4953047;28;20027;-77
2023/01/26 07:16:15;;;;;;;32.72;14.73;;;;;;;2.52;100.00;101114.53;4952381;28;20029;-77
2023/01/26 07:18:40;;;;;;;22.40;11.10;;;;;;;2.51;100.00;101109.31;4952729;28;20034;-77
2023/01/26 07:21:09;;;;;;;139.82;77.30;;;;;;;2.39;100.00;101076.09;4963818;28;20475;-77
2023/01/26 07:23:35;;;;;;;24.55;8.65;;;;;;;2.01;100.00;101018.78;4973011;28;20109;-78
2023/01/26 07:26:01;;;;;;;48.83;25.20;;;;;;;2.38;100.00;101067.56;4972928;28;20037;-77
2023/01/26 07:28:26;;;;;;;24.65;12.07;;;;;;;2.51;100.00;101081.28;4972866;28;20031;-77
2023/01/26 07:30:55;;;;;;;33.00;16.30;;;;;;;2.54;100.00;101084.97;4971441;28;20097;-77
2023/01/26 07:33:21;;;;;;;33.55;14.35;;;;;;;2.09;100.00;100999.91;4972656;28;20482;-77
2023/01/26 07:35:46;;;;;;;132.07;62.60;;;;;;;2.05;100.00;100991.91;4972784;28;20031;-79
2023/01/26 07:38:12;;;;;;;53.17;31.40;;;;;;;2.45;100.00;101073.16;4972692;28;20023;-79
2023/01/26 07:40:37;;;;;;;37.30;20.73;;;;;;;1.67;100.00;100936.25;4972755;28;20038;-77
2023/01/26 07:43:02;;;;;;;33.88;19.40;;;;;;;2.33;100.00;101032.28;4972596;28;20031;-78
2023/01/26 07:45:28;;;;;;;49.47;28.08;;;;;;;2.52;100.00;101045.72;4972260;28;20536;-76
2023/01/26 07:47:54;;;;;;;50.10;29.25;;;;;;;2.48;100.00;101040.25;4972452;28;20027;-78
2023/01/26 07:50:20;;;;;;;44.38;25.05;;;;;;;2.58;100.00;101032.56;4972935;28;20057;-78
2023/01/26 07:52:47;;;;;;;51.05;28.75;;;;;;;2.46;100.00;100986.63;4972734;28;20401;-78
2023/01/26 07:55:13;;;;;;;24.80;14.55;;;;;;;2.45;100.00;100996.69;4972401;28;20034;-78
2023/01/26 07:57:58;;;;;;;15.05;8.30;;;;;;;2.66;100.00;101018.75;4972391;28;20031;-77
2023/01/26 08:00:24;;;;;;;33.58;17.77;;;;;;;2.66;100.00;101020.41;4950119;28;20039;-78
2023/01/26 08:02:50;;;;;;;30.48;17.80;;;;;;;2.72;100.00;101031.97;4950720;29;20576;-77
2023/01/26 08:05:15;;;;;;;34.25;19.98;;;;;;;2.70;100.00;101035.16;4950685;29;20051;-77
2023/01/26 08:07:41;;;;;;;70.75;44.03;;;;;;;2.59;100.00;101019.03;4950708;29;20071;-79
2023/01/26 08:10:07;;;;;;;51.05;33.88;;;;;;;2.77;100.00;101036.53;4950586;29;20058;-78
2023/01/26 08:12:34;;;;;;;39.92;22.55;;;;;;;2.75;100.00;101039.88;4950458;29;20043;-77
2023/01/26 08:14:59;;;;;;;25.10;12.27;;;;;;;2.71;100.00;101048.03;4950533;29;20043;-77
2023/01/26 08:17:27;;;;;;;19.67;9.75;;;;;;;2.58;100.00;101038.53;4950419;29;20031;-81
2023/01/26 08:19:52;;;;;;;14.02;8.80;;;;;;;2.82;100.00;101056.53;4950345;29;20050;-80
2023/01/26 08:22:17;;;;;;;17.25;7.85;;;;;;;2.52;100.00;101019.34;4950324;29;20039;-81
2023/01/26 08:24:43;;;;;;;14.52;7.35;;;;;;;2.63;100.00;101023.63;4950088;29;20042;-80
2023/01/26 08:27:08;;;;;;;13.23;7.07;;;;;;;2.92;100.00;101059.00;4934095;29;20568;-80
2023/01/26 08:42:01;;;;;;;12.00;6.72;;;;;;;2.56;100.00;101046.84;5065523;28;20402;-69
2023/01/26 08:44:27;;;;;;;13.40;8.18;;;;;;;2.68;100.00;101050.34;5058541;28;20040;-69
2023/01/26 08:46:52;;;;;;;21.35;12.70;;;;;;;2.79;100.00;101037.53;5057884;28;20023;-70
2023/01/26 08:49:17;;;;;;;33.83;16.48;;;;;;;2.87;100.00;101031.38;5067430;28;20039;-69
2023/01/26 08:51:43;;;;;;;15.38;9.05;;;;;;;2.96;100.00;101029.53;5065952;28;20501;-69
2023/01/26 08:54:08;;;;;;;14.27;7.40;;;;;;;2.82;100.00;101025.03;5067956;28;20032;-69
2023/01/26 08:56:34;;;;;;;18.85;14.20;;;;;;;2.92;100.00;101019.88;5068150;28;20028;-69
2023/01/26 08:59:00;;;;;;;27.23;14.32;;;;;;;2.94;100.00;101014.88;5067619;28;20024;-69
2023/01/26 09:01:25;;;;;;;30.38;14.13;;;;;;;2.91;100.00;101011.31;5067589;28;20494;-69
2023/01/26 09:03:51;;;;;;;25.25;13.43;;;;;;;2.97;100.00;100998.16;5063909;28;20032;-69
2023/01/26 09:06:17;;;;;;;19.92;12.73;;;;;;;2.70;100.00;100951.03;5067494;28;20025;-69
2023/01/26 09:08:42;;;;;;;12.55;6.72;;;;;;;3.04;100.00;100985.09;5067799;28;20029;-69
2023/01/26 09:11:09;;;;;;;21.83;11.55;;;;;;;3.01;100.00;100972.09;5049876;28;20036;-69
2023/01/26 09:13:36;;;;;;;24.20;11.77;;;;;;;3.05;100.00;100976.69;5067573;28;20037;-69
2023/01/26 09:16:06;;;;;;;17.48;8.88;;;;;;;3.08;100.00;100968.38;5067438;28;20028;-70
2023/01/26 09:18:32;;;;;;;29.15;11.48;;;;;;;3.08;100.00;100963.25;5067555;28;20111;-69
2023/01/26 09:21:05;;;;;;;19.08;9.02;;;;;;;2.88;100.00;100914.19;5067551;28;20116;-70
2023/01/26 09:23:32;;;;;;;12.18;7.22;;;;;;;3.28;100.00;100958.72;5067023;28;20330;-70
2023/01/26 09:25:57;;;;;;;26.70;11.43;;;;;;;3.18;100.00;100936.78;5066990;28;20482;-70
2023/01/26 09:28:23;;;;;;;41.95;15.93;;;;;;;3.06;100.00;100911.22;5067537;28;20035;-70
2023/01/26 09:30:48;;;;;;;24.55;12.30;;;;;;;3.31;100.00;100930.91;5067274;28;20028;-70
2023/01/26 09:33:13;;;;;;;20.40;9.57;;;;;;;3.20;100.00;100930.09;5067334;28;20035;-70
2023/01/26 09:35:59;;;;;;;23.92;10.48;;;;;;;3.25;100.00;100933.88;5067289;28;20029;-70
2023/01/26 09:38:24;;;;;;;30.23;13.35;;;;;;;3.36;100.00;100925.34;5064231;28;20048;-70
2023/01/26 09:41:16;;;;;;;34.25;14.32;;;;;;;3.17;100.00;100891.63;5064085;28;20063;-70
2023/01/26 09:43:49;;;;;;;18.63;9.10;;;;;;;3.31;100.00;100916.47;5047750;28;20045;-70
2023/01/26 09:46:39;;;;;;;20.77;10.25;;;;;;;3.28;100.00;100900.94;5064410;28;20498;-70
2023/01/26 09:49:25;;;;;;;;;;;;;;;3.34;100.00;100886.06;5064533;28;20493;-70
2023/01/26 09:52:30;;;;;;;28.10;11.43;;;;;;;3.35;100.00;100892.97;5058940;28;19917;-70
2023/01/26 09:55:02;;;;;;;16.70;8.30;;;;;;;3.22;100.00;100882.63;5011438;28;20038;-70
2023/01/26 09:57:41;;;;;;;18.30;8.65;;;;;;;3.20;100.00;100879.06;5011411;28;20124;-70
2023/01/26 10:00:24;;;;;;;26.42;10.30;;;;;;;3.14;100.00;100863.31;4994709;28;20092;-70
2023/01/26 10:03:14;;;;;;;27.98;12.63;;;;;;;3.10;100.00;100869.84;5011331;28;20067;-70
2023/01/26 10:05:57;;;;;;;;;;;;;;;3.08;100.00;100856.13;4991930;28;20030;-70
2023/01/26 10:08:23;;;;;;;11.50;6.78;;;;;;;2.98;100.00;100848.53;4991529;28;20324;-70
2023/01/26 10:10:58;;;;;;;10.85;6.57;;;;;;;2.75;100.00;100823.16;4991608;28;20034;-70
2023/01/26 10:13:25;;;;;;;11.40;6.13;;;;;;;2.70;100.00;100791.31;4991399;28;20038;-70
2023/01/26 10:15:57;;;;;;;13.48;7.22;;;;;;;2.82;100.00;100819.38;4990636;28;20129;-70
2023/01/26 10:18:29;;;;;;;11.27;6.72;;;;;;;2.94;100.00;100818.50;4991226;28;20070;-69
2023/01/26 10:20:57;;;;;;;11.35;7.20;;;;;;;2.87;100.00;100802.75;4991428;28;20697;-70
2023/01/26 10:23:32;;;;;;;12.57;7.00;;;;;;;2.91;100.00;100796.22;4991344;28;20065;-70
2023/01/26 10:26:10;;;;;;;12.68;6.72;;;;;;;2.91;100.00;100794.53;4991273;28;20046;-69
2023/01/26 10:28:35;;;;;;;12.07;6.75;;;;;;;2.93;100.00;100789.56;4991072;28;20118;-70
2023/01/26 10:31:04;;;;;;;11.45;6.40;;;;;;;2.97;100.00;100780.47;4996157;28;20055;-70
2023/01/26 10:33:31;;;;;;;12.55;6.85;;;;;;;2.99;100.00;100784.00;5052331;28;20499;-70
2023/01/26 10:35:57;;;;;;;13.27;7.00;;;;;;;2.88;100.00;100768.81;5052754;28;20033;-70
2023/01/26 10:38:31;;;;;;;11.93;6.97;;;;;;;2.87;100.00;100745.78;5052504;28;20025;-70
2023/01/26 10:41:20;;;;;;;12.73;7.78;;;;;;;2.83;100.00;100738.66;5052458;28;20413;-71
2023/01/26 10:44:01;;;;;;;17.67;11.05;;;;;;;2.74;100.00;100721.94;5049859;28;20071;-71
2023/01/26 10:46:36;;;;;;;19.90;12.25;;;;;;;3.08;100.00;100775.38;5049679;28;20119;-71
2023/01/26 10:49:23;;;;;;;12.07;6.70;;;;;;;3.08;100.00;100769.38;5049996;28;20090;-71
2023/01/26 10:52:20;;;;;;;11.88;7.40;;;;;;;3.08;100.00;100766.84;5049378;28;20501;-71
2023/01/26 10:55:09;;;;;;;11.52;6.90;;;;;;;3.10;100.00;100742.31;5048941;28;20029;-72
2023/01/26 10:57:40;;;;;;;14.63;7.75;;;;;;;3.13;100.00;100733.97;4959343;28;20034;-71
2023/01/26 11:00:30;;;;;;;20.33;13.57;;;;;;;3.18;100.00;100730.13;4961933;28;20042;-71
2023/01/26 11:03:15;;;;;;;19.17;11.00;;;;;;;3.20;100.00;100721.78;4960485;28;20129;-71
2023/01/26 11:05:46;;;;;;;21.52;13.02;;;;;;;3.16;100.00;100704.47;4966362;28;20053;-71
2023/01/26 11:08:36;;;;;;;37.78;22.88;;;;;;;3.31;100.00;100711.44;4944023;29;20047;-72
2023/01/26 11:11:02;;;;;;;23.27;13.60;;;;;;;3.19;100.00;100678.28;4967147;28;20408;-73
2023/01/26 11:13:28;;;;;;;27.40;14.05;;;;;;;3.41;100.00;100695.97;4970944;28;20054;-71
2023/01/26 11:16:13;;;;;;;31.55;17.10;;;;;;;3.56;100.00;100712.38;4989564;28;20034;-72
2023/01/26 11:18:49;;;;;;;36.35;17.85;;;;;;;3.45;100.00;100690.34;4990364;28;20030;-70
2023/01/26 11:21:21;;;;;;;28.08;14.85;;;;;;;3.53;100.00;100714.69;4990378;28;20045;-72
2023/01/26 11:24:03;;;;;;;41.83;14.10;;;;;;;3.61;100.00;100696.47;4984753;28;20496;-71
2023/01/26 11:26:41;;;;;;;24.40;11.40;;;;;;;3.62;100.00;100691.47;4990385;28;20043;-74
2023/01/26 11:29:34;;;;;;;53.45;17.23;;;;;;;3.66;100.00;100685.78;4990108;28;20042;-71
2023/01/26 11:32:05;;;;;;;36.60;14.93;;;;;;;3.69;100.00;100683.44;4990286;28;20026;-71
2023/01/26 11:35:03;;;;;;;32.95;13.35;;;;;;;3.75;100.00;100671.88;5018653;28;20503;-71
2023/01/26 11:37:55;;;;;;;26.98;12.15;;;;;;;3.85;100.00;100669.16;5052601;28;20028;-71
2023/01/26 11:40:43;;;;;;;27.27;14.32;;;;;;;3.89;100.00;100664.34;5051854;28;20137;-72
2023/01/26 11:43:35;;;;;;;33.53;14.13;;;;;;;3.91;100.00;100666.13;5051854;28;20473;-72
2023/01/26 11:46:22;;;;;;;31.75;14.23;;;;;;;3.70;100.00;100608.63;5049784;28;20498;-72
2023/01/26 11:49:24;;;;;;;40.30;16.42;;;;;;;3.97;100.00;100641.00;5051585;28;20111;-72
2023/01/26 11:52:08;;;;;;;16.30;8.70;;;;;;;3.98;100.00;100648.75;5051251;28;20029;-72
2023/01/26 11:54:48;;;;;;;18.83;9.93;;;;;;;3.76;100.00;100602.16;5051492;28;20033;-72
2023/01/26 11:57:17;;;;;;;15.88;7.72;;;;;;;4.00;100.00;100630.97;5051387;28;20029;-71
2023/01/26 11:59:56;;;;;;;11.48;7.18;;;;;;;3.83;100.00;100594.13;5051417;28;20037;-72
2023/01/26 12:02:36;;;;;;;16.48;9.25;;;;;;;3.98;100.00;100602.78;5051260;28;20028;-71
2023/01/26 12:05:25;;;;;;;14.57;7.47;;;;;;;4.03;100.00;100609.06;5051383;28;20092;-71
2023/01/26 12:08:21;;;;;;;14.50;8.40;;;;;;;4.05;100.00;100597.28;5051512;28;20052;-72
2023/01/26 12:10:52;;;;;;;14.30;8.00;;;;;;;4.10;100.00;100602.72;5055763;28;20041;-71
2023/01/26 12:13:33;;;;;;;14.82;8.10;;;;;;;4.12;100.00;100608.78;5040427;28;20026;-71
2023/01/26 12:16:14;;;;;;;14.75;8.52;;;;;;;4.18;100.00;100621.09;5036958;28;20494;-71
2023/01/26 12:19:02;;;;;;;13.48;7.85;;;;;;;4.17;100.00;100614.19;5050744;28;20033;-72
2023/01/26 12:21:33;;;;;;;12.90;8.68;;;;;;;4.22;100.00;100617.94;5067955;28;20430;-72
2023/01/26 12:24:02;;;;;;;12.52;7.68;;;;;;;4.20;100.00;100619.53;5051024;28;20047;-71
2023/01/26 12:26:44;;;;;;;10.70;7.15;;;;;;;4.25;100.00;100615.59;5068193;28;20499;-74